createdAt,value
2023-05-25T00:01:48.991Z,10.48
2023-05-25T00:04:17.670Z,10.34
2023-05-25T00:06:47.522Z,10.37
2023-05-25T00:09:15.210Z,10.34
2023-05-25T00:11:42.736Z,10.35
2023-05-25T00:14:10.241Z,10.24
2023-05-25T00:16:37.950Z,10.18
2023-05-25T00:19:10.865Z,10.32
2023-05-25T00:21:38.545Z,10.21
2023-05-25T00:24:06.724Z,10.23
2023-05-25T00:26:37.478Z,10.19
2023-05-25T00:29:05.075Z,10.17
2023-05-25T00:31:36.833Z,10.13
2023-05-25T00:34:04.519Z,10.13
2023-05-25T00:36:31.939Z,10.12
2023-05-25T00:38:59.473Z,10.00
2023-05-25T00:41:28.660Z,10.12
2023-05-25T00:43:56.149Z,9.97
2023-05-25T00:46:23.919Z,9.95
2023-05-25T00:48:55.136Z,9.82
2023-05-25T00:51:22.785Z,9.86
2023-05-25T00:53:50.292Z,9.88
2023-05-25T00:56:28.349Z,9.97
2023-05-25T00:58:57.239Z,9.89
2023-05-25T01:01:27.553Z,9.77
2023-05-25T01:03:57.862Z,9.82
2023-05-25T01:06:27.101Z,9.80
2023-05-25T01:09:02.276Z,9.71
2023-05-25T01:11:36.543Z,9.60
2023-05-25T01:14:04.152Z,9.62
2023-05-25T01:16:32.082Z,9.57
2023-05-25T01:18:59.587Z,9.62
2023-05-25T01:21:42.342Z,9.57
2023-05-25T01:24:22.944Z,9.49
2023-05-25T01:26:58.787Z,9.57
2023-05-25T01:29:28.482Z,9.47
2023-05-25T01:31:57.559Z,9.41
2023-05-25T01:34:26.090Z,9.41
2023-05-25T01:36:53.800Z,9.46
2023-05-25T01:39:24.187Z,9.35
2023-05-25T01:41:51.648Z,9.32
2023-05-25T01:44:19.468Z,9.43
2023-05-25T01:46:47.106Z,9.30
2023-05-25T01:49:17.101Z,9.18
2023-05-25T01:51:57.060Z,9.23
2023-05-25T01:54:36.726Z,9.26
2023-05-25T01:57:09.531Z,9.35
2023-05-25T01:59:38.320Z,9.23
2023-05-25T02:02:06.270Z,9.21
2023-05-25T02:04:33.901Z,9.34
2023-05-25T02:07:01.424Z,9.22
2023-05-25T02:09:28.947Z,9.16
2023-05-25T02:11:56.508Z,9.21
2023-05-25T02:14:24.102Z,9.22
2023-05-25T02:16:51.875Z,9.16
2023-05-25T02:19:19.384Z,9.25
2023-05-25T02:21:46.792Z,9.21
2023-05-25T02:24:14.354Z,9.12
2023-05-25T02:26:41.814Z,9.07
2023-05-25T02:29:09.268Z,9.09
2023-05-25T02:31:38.052Z,9.12
2023-05-25T02:34:05.588Z,9.10
2023-05-25T02:36:34.835Z,9.04
2023-05-25T02:39:02.385Z,9.01
2023-05-25T02:41:29.772Z,9.11
2023-05-25T02:43:58.157Z,9.05
2023-05-25T02:46:25.723Z,9.08
2023-05-25T02:48:53.299Z,9.04
2023-05-25T02:51:20.831Z,8.98
2023-05-25T02:53:48.507Z,8.93
2023-05-25T02:56:16.385Z,8.90
2023-05-25T02:58:44.110Z,8.89
2023-05-25T03:01:18.879Z,8.84
2023-05-25T03:03:47.463Z,8.88
2023-05-25T03:06:15.042Z,8.82
2023-05-25T03:08:42.601Z,8.80
2023-05-25T03:11:10.074Z,8.80
2023-05-25T03:14:31.298Z,8.79
2023-05-25T03:16:59.294Z,8.82
2023-05-25T03:19:27.093Z,8.82
2023-05-25T03:21:54.942Z,8.74
2023-05-25T03:24:22.648Z,8.74
2023-05-25T03:26:50.378Z,8.76
2023-05-25T03:29:18.378Z,8.84
2023-05-25T03:31:45.830Z,8.81
2023-05-25T03:34:13.654Z,8.69
2023-05-25T03:36:46.184Z,8.71
2023-05-25T03:40:09.827Z,8.72
2023-05-25T03:42:38.269Z,8.74
2023-05-25T03:45:06.889Z,8.70
2023-05-25T03:47:34.976Z,8.65
2023-05-25T03:50:07.278Z,8.66
2023-05-25T03:52:35.363Z,8.62
2023-05-25T03:55:04.720Z,8.68
2023-05-25T03:57:32.678Z,8.69
2023-05-25T04:00:00.276Z,8.74
2023-05-25T04:02:28.034Z,8.58
2023-05-25T04:04:57.174Z,8.64
2023-05-25T04:07:25.023Z,8.58
2023-05-25T04:09:52.620Z,8.65
2023-05-25T04:12:20.202Z,8.63
2023-05-25T04:14:47.876Z,8.71
2023-05-25T04:17:15.666Z,8.69
2023-05-25T04:19:43.236Z,8.70
2023-05-25T04:22:10.625Z,8.82
2023-05-25T04:24:37.851Z,8.77
2023-05-25T04:27:05.709Z,8.82
2023-05-25T04:29:33.439Z,8.82
2023-05-25T04:32:01.435Z,8.81
2023-05-25T04:34:30.038Z,8.85
2023-05-25T04:36:58.077Z,8.91
2023-05-25T04:39:25.802Z,8.92
2023-05-25T04:41:53.855Z,8.95
2023-05-25T04:44:21.656Z,8.97
2023-05-25T04:46:49.477Z,9.04
2023-05-25T04:49:19.144Z,9.07
2023-05-25T04:51:46.687Z,9.15
2023-05-25T04:54:14.190Z,9.15
2023-05-25T04:56:41.977Z,9.18
2023-05-25T04:59:09.551Z,9.26
2023-05-25T05:01:41.486Z,9.33
2023-05-25T05:04:09.489Z,9.30
2023-05-25T05:06:37.126Z,9.40
2023-05-25T05:09:04.837Z,9.45
2023-05-25T05:11:32.257Z,9.51
2023-05-25T05:13:59.574Z,9.63
2023-05-25T05:16:27.182Z,9.70
2023-05-25T05:18:54.607Z,9.74
2023-05-25T05:21:23.546Z,9.78
2023-05-25T05:23:51.328Z,9.88
2023-05-25T05:26:18.838Z,9.91
2023-05-25T05:28:46.472Z,9.97
2023-05-25T05:31:14.046Z,10.04
2023-05-25T05:33:41.769Z,10.13
2023-05-25T05:36:09.502Z,10.18
2023-05-25T05:38:39.331Z,10.30
2023-05-25T05:41:13.528Z,10.42
2023-05-25T05:43:45.724Z,10.51
2023-05-25T05:46:13.381Z,10.55
2023-05-25T05:48:41.631Z,10.59
2023-05-25T05:51:09.109Z,10.78
2023-05-25T05:53:36.675Z,10.80
2023-05-25T05:56:04.657Z,10.86
2023-05-25T05:58:32.643Z,10.96
2023-05-25T06:01:00.425Z,11.14
2023-05-25T06:03:29.013Z,11.22
2023-05-25T06:05:56.501Z,11.27
2023-05-25T06:08:24.025Z,11.43
2023-05-25T06:10:51.443Z,11.53
2023-05-25T06:13:18.906Z,11.61
2023-05-25T06:15:46.729Z,11.68
2023-05-25T06:18:14.441Z,11.76
2023-05-25T06:20:41.971Z,11.92
2023-05-25T06:23:11.586Z,11.94
2023-05-25T06:25:39.223Z,12.00
2023-05-25T06:28:06.804Z,12.18
2023-05-25T06:30:34.344Z,12.11
2023-05-25T06:33:02.094Z,12.27
2023-05-25T06:35:30.089Z,12.13
2023-05-25T06:37:57.985Z,12.31
2023-05-25T06:40:25.665Z,12.45
2023-05-25T06:42:53.298Z,12.41
2023-05-25T06:45:21.480Z,12.67
2023-05-25T06:47:48.950Z,12.60
2023-05-25T06:50:16.878Z,12.77
2023-05-25T06:52:44.420Z,12.81
2023-05-25T06:55:11.800Z,12.88
2023-05-25T06:57:39.415Z,13.16
2023-05-25T07:00:08.385Z,12.87
2023-05-25T07:02:36.075Z,13.17
2023-05-25T07:05:05.934Z,13.45
2023-05-25T07:07:33.694Z,13.35
2023-05-25T07:10:01.749Z,13.46
2023-05-25T07:12:29.187Z,13.41
2023-05-25T07:14:57.589Z,13.50
2023-05-25T07:17:25.083Z,13.38
2023-05-25T07:19:52.751Z,13.61
2023-05-25T07:22:20.631Z,13.57
2023-05-25T07:24:48.066Z,13.89
2023-05-25T07:27:16.497Z,13.92
2023-05-25T07:29:44.255Z,14.17
2023-05-25T07:32:11.983Z,14.12
2023-05-25T07:34:39.618Z,14.32
2023-05-25T07:37:07.045Z,14.56
2023-05-25T07:39:34.508Z,14.82
2023-05-25T07:42:02.780Z,14.98
2023-05-25T07:44:30.448Z,14.72
2023-05-25T07:46:57.958Z,15.18
2023-05-25T07:49:25.906Z,15.01
2023-05-25T07:51:53.417Z,15.28
2023-05-25T07:54:21.118Z,15.24
2023-05-25T07:56:48.559Z,15.26
2023-05-25T07:59:16.089Z,15.41
2023-05-25T08:01:43.561Z,15.63
2023-05-25T08:04:11.085Z,15.80
2023-05-25T08:06:38.744Z,15.81
2023-05-25T08:09:08.234Z,16.11
2023-05-25T08:11:35.851Z,15.83
2023-05-25T08:14:03.407Z,15.89
2023-05-25T08:16:30.999Z,16.21
2023-05-25T08:18:59.847Z,16.15
2023-05-25T08:21:27.312Z,16.22
2023-05-25T08:23:54.832Z,16.17
2023-05-25T08:28:53.514Z,16.29
2023-05-25T08:31:21.083Z,16.41
2023-05-25T08:33:48.559Z,16.56
2023-05-25T08:36:16.251Z,16.68
2023-05-25T08:38:43.732Z,17.12
2023-05-25T08:41:13.553Z,17.11
2023-05-25T08:43:42.929Z,17.02
2023-05-25T08:46:10.653Z,16.95
2023-05-25T08:48:42.282Z,16.89
2023-05-25T08:51:12.110Z,17.10
2023-05-25T08:53:41.373Z,17.57
2023-05-25T08:56:20.593Z,17.96
2023-05-25T08:59:13.108Z,18.21
2023-05-25T09:01:46.933Z,17.81
2023-05-25T09:04:14.751Z,17.98
2023-05-25T09:06:42.490Z,18.01
2023-05-25T09:09:10.746Z,18.30
2023-05-25T09:11:40.665Z,18.05
2023-05-25T09:14:09.277Z,18.53
2023-05-25T09:16:38.558Z,18.28
2023-05-25T09:19:06.156Z,18.80
2023-05-25T09:21:33.734Z,19.05
2023-05-25T09:24:01.271Z,19.07
2023-05-25T09:26:28.902Z,19.10
2023-05-25T09:28:56.398Z,19.20
2023-05-25T09:31:25.322Z,19.13
2023-05-25T09:34:00.090Z,19.17
2023-05-25T09:36:28.018Z,19.17
2023-05-25T09:38:56.609Z,19.37
2023-05-25T09:41:27.871Z,19.15
2023-05-25T09:44:06.600Z,19.42
2023-05-25T09:46:39.325Z,19.48
2023-05-25T09:49:09.502Z,19.41
2023-05-25T09:51:37.573Z,19.40
2023-05-25T09:54:05.581Z,20.02
2023-05-25T09:56:36.481Z,19.84
2023-05-25T09:59:04.386Z,19.52
2023-05-25T10:01:33.852Z,20.05
2023-05-25T10:04:05.099Z,19.76
2023-05-25T10:06:34.070Z,20.38
2023-05-25T10:09:01.998Z,20.63
2023-05-25T10:11:29.825Z,20.48
2023-05-25T10:13:59.105Z,20.24
2023-05-25T10:16:29.876Z,20.31
2023-05-25T10:19:21.876Z,20.64
2023-05-25T10:22:05.564Z,20.68
2023-05-25T10:24:33.033Z,20.51
2023-05-25T10:27:07.721Z,20.80
2023-05-25T10:29:42.973Z,20.99
2023-05-25T10:32:10.490Z,21.09
2023-05-25T10:34:37.891Z,21.02
2023-05-25T10:37:06.197Z,20.84
2023-05-25T10:39:34.140Z,21.01
2023-05-25T10:42:03.443Z,20.72
2023-05-25T10:44:33.251Z,20.34
2023-05-25T10:47:01.328Z,21.48
2023-05-25T10:49:35.639Z,21.09
2023-05-25T10:52:06.281Z,20.98
2023-05-25T10:54:36.531Z,21.20
2023-05-25T10:57:21.692Z,21.51
2023-05-25T11:00:00.134Z,21.75
2023-05-25T11:02:32.491Z,20.98
2023-05-25T11:05:27.569Z,21.51
2023-05-25T11:08:08.696Z,21.80
2023-05-25T11:10:51.014Z,22.14
2023-05-25T11:13:37.852Z,21.83
2023-05-25T11:16:22.912Z,22.18
2023-05-25T11:18:55.077Z,22.22
2023-05-25T11:21:41.325Z,22.23
2023-05-25T11:24:17.555Z,22.83
2023-05-25T11:26:56.869Z,22.34
2023-05-25T11:29:25.924Z,21.84
2023-05-25T11:31:55.571Z,22.60
2023-05-25T11:34:25.483Z,22.42
2023-05-25T11:37:04.248Z,22.72
2023-05-25T11:39:31.932Z,22.43
2023-05-25T11:42:11.405Z,22.68
2023-05-25T11:44:39.190Z,22.62
2023-05-25T11:47:14.516Z,22.30
2023-05-25T11:49:44.256Z,22.51
2023-05-25T11:52:12.372Z,22.41
2023-05-25T11:54:41.368Z,22.95
2023-05-25T11:57:21.193Z,22.99
2023-05-25T11:59:57.381Z,22.92
2023-05-25T12:02:25.455Z,23.57
2023-05-25T12:04:57.706Z,22.99
2023-05-25T12:07:26.874Z,22.83
2023-05-25T12:10:06.007Z,23.75
2023-05-25T12:12:43.448Z,22.89
2023-05-25T12:15:27.243Z,23.38
2023-05-25T12:17:55.037Z,23.09
2023-05-25T12:20:22.762Z,23.12
2023-05-25T12:22:50.296Z,23.60
2023-05-25T12:25:24.099Z,23.70
2023-05-25T12:28:14.983Z,24.24
2023-05-25T12:30:43.119Z,23.95
2023-05-25T12:33:14.834Z,23.23
2023-05-25T12:35:48.470Z,23.92
2023-05-25T12:38:19.780Z,23.32
2023-05-25T12:40:47.719Z,23.65
2023-05-25T12:43:17.019Z,23.86
2023-05-25T12:45:44.684Z,24.01
2023-05-25T12:48:12.261Z,24.48
2023-05-25T12:50:41.092Z,23.83
2023-05-25T12:53:08.712Z,24.13
2023-05-25T12:55:36.502Z,24.27
2023-05-25T12:58:07.941Z,23.97
2023-05-25T13:00:38.193Z,24.49
2023-05-25T13:03:09.273Z,24.38
2023-05-25T13:05:38.027Z,24.47
2023-05-25T13:08:07.270Z,24.51
2023-05-25T13:10:37.686Z,24.63
2023-05-25T13:13:05.003Z,24.47
2023-05-25T13:15:32.158Z,24.72
2023-05-25T13:17:59.834Z,24.45
2023-05-25T13:20:30.727Z,24.47
2023-05-25T13:22:58.265Z,23.93
2023-05-25T13:25:27.906Z,24.38
2023-05-25T13:27:57.917Z,24.66
2023-05-25T13:30:26.468Z,24.23
2023-05-25T13:32:53.998Z,24.83
2023-05-25T13:35:40.606Z,25.01
2023-05-25T13:38:07.768Z,25.07
2023-05-25T13:40:35.405Z,25.49
2023-05-25T13:43:03.346Z,25.39
2023-05-25T13:45:30.835Z,25.39
2023-05-25T13:47:59.151Z,25.22
2023-05-25T13:50:27.241Z,25.28
2023-05-25T13:52:54.701Z,24.93
2023-05-25T13:55:23.038Z,24.83
2023-05-25T13:57:51.972Z,24.98
2023-05-25T14:00:19.905Z,25.57
2023-05-25T14:02:47.477Z,25.50
2023-05-25T14:05:15.045Z,24.63
2023-05-25T14:07:42.671Z,24.95
2023-05-25T14:10:10.793Z,25.18
2023-05-25T14:12:38.284Z,25.05
2023-05-25T14:15:06.980Z,25.14
2023-05-25T14:17:34.565Z,25.11
2023-05-25T14:20:04.384Z,25.22
2023-05-25T14:22:32.310Z,25.47
2023-05-25T14:24:59.898Z,25.38
2023-05-25T14:27:27.474Z,25.80
2023-05-25T14:29:55.005Z,26.30
2023-05-25T14:32:22.005Z,26.06
2023-05-25T14:34:49.013Z,25.90
2023-05-25T14:37:16.496Z,26.06
2023-05-25T14:39:43.931Z,25.49
2023-05-25T14:42:11.459Z,25.98
2023-05-25T14:44:41.967Z,25.91
2023-05-25T14:47:09.825Z,25.86
2023-05-25T14:49:38.122Z,26.04
2023-05-25T14:52:05.757Z,25.70
2023-05-25T14:54:33.522Z,26.39
2023-05-25T14:57:02.018Z,25.49
2023-05-25T14:59:29.680Z,25.67
2023-05-25T15:01:57.175Z,24.90
2023-05-25T15:04:26.623Z,24.96
2023-05-25T15:06:54.192Z,25.09
2023-05-25T15:09:22.976Z,25.99
2023-05-25T15:11:50.172Z,26.21
2023-05-25T15:14:17.669Z,25.18
2023-05-25T15:16:45.239Z,25.32
2023-05-25T15:19:15.092Z,24.99
2023-05-25T15:21:44.204Z,25.80
2023-05-25T15:24:13.924Z,25.48
2023-05-25T15:26:41.554Z,25.78
2023-05-25T15:29:09.269Z,25.96
2023-05-25T15:31:36.738Z,25.63
2023-05-25T15:34:04.253Z,25.35
2023-05-25T15:36:32.804Z,25.94
2023-05-25T15:39:00.273Z,25.57
2023-05-25T15:41:27.933Z,25.79
2023-05-25T15:44:01.211Z,25.74
2023-05-25T15:46:29.195Z,25.70
2023-05-25T15:48:56.762Z,25.77
2023-05-25T15:51:24.105Z,25.98
2023-05-25T15:53:51.663Z,25.61
2023-05-25T15:56:19.145Z,25.36
2023-05-25T15:58:49.123Z,25.60
2023-05-25T16:01:16.843Z,25.19
2023-05-25T16:03:44.947Z,25.49
2023-05-25T16:06:12.620Z,25.11
2023-05-25T16:08:40.109Z,24.85
2023-05-25T16:11:07.566Z,25.35
2023-05-25T16:13:35.013Z,25.30
2023-05-25T16:16:02.606Z,25.06
2023-05-25T16:18:30.136Z,25.18
2023-05-25T16:20:58.021Z,25.24
2023-05-25T16:23:25.620Z,25.27
2023-05-25T16:25:53.123Z,25.38
2023-05-25T16:28:20.838Z,24.98
2023-05-25T16:30:48.371Z,25.11
2023-05-25T16:33:16.090Z,25.06
2023-05-25T16:35:43.984Z,24.72
2023-05-25T16:38:11.621Z,24.98
2023-05-25T16:40:39.026Z,24.96
2023-05-25T16:43:06.606Z,25.00
2023-05-25T16:45:34.060Z,24.83
2023-05-25T16:48:01.545Z,24.24
2023-05-25T16:50:29.147Z,24.83
2023-05-25T16:52:57.201Z,25.35
2023-05-25T16:55:25.672Z,25.10
2023-05-25T16:57:53.085Z,24.28
2023-05-25T17:00:20.910Z,23.90
2023-05-25T17:02:48.497Z,23.69
2023-05-25T17:05:16.126Z,23.58
2023-05-25T17:07:43.596Z,23.94
2023-05-25T17:10:11.376Z,24.02
2023-05-25T17:12:39.030Z,23.68
2023-05-25T17:15:07.742Z,23.87
2023-05-25T17:17:35.139Z,23.54
2023-05-25T17:20:03.952Z,23.77
2023-05-25T17:22:31.575Z,23.53
2023-05-25T17:24:59.065Z,23.33
2023-05-25T17:27:26.420Z,23.51
2023-05-25T17:29:53.916Z,23.09
2023-05-25T17:32:21.399Z,23.11
2023-05-25T17:34:48.977Z,23.36
2023-05-25T17:37:17.308Z,23.34
2023-05-25T17:39:45.560Z,23.19
2023-05-25T17:42:13.030Z,22.83
2023-05-25T17:44:42.660Z,23.07
2023-05-25T17:47:11.378Z,22.82
2023-05-25T17:49:39.066Z,22.59
2023-05-25T17:52:07.790Z,22.82
2023-05-25T17:54:35.735Z,22.92
2023-05-25T17:57:03.751Z,22.47
2023-05-25T17:59:31.219Z,22.57
2023-05-25T18:01:58.851Z,22.25
2023-05-25T18:04:26.474Z,22.06
2023-05-25T18:06:53.894Z,22.12
2023-05-25T18:09:21.463Z,21.65
2023-05-25T18:11:49.090Z,21.85
2023-05-25T18:14:16.934Z,21.90
2023-05-25T18:16:45.039Z,21.68
2023-05-25T18:19:14.791Z,21.52
2023-05-25T18:21:42.297Z,21.47
2023-05-25T18:24:10.537Z,21.31
2023-05-25T18:26:37.960Z,21.22
2023-05-25T18:29:05.401Z,21.15
2023-05-25T18:31:33.646Z,21.20
2023-05-25T18:34:01.838Z,21.09
2023-05-25T18:36:29.278Z,20.94
2023-05-25T18:38:56.744Z,21.07
2023-05-25T18:41:24.557Z,20.79
2023-05-25T18:43:52.007Z,20.69
2023-05-25T18:46:19.951Z,20.80
2023-05-25T18:48:48.176Z,20.69
2023-05-25T18:51:31.182Z,20.49
2023-05-25T18:54:10.534Z,20.50
2023-05-25T18:56:43.404Z,20.35
2023-05-25T18:59:10.803Z,20.19
2023-05-25T19:01:38.468Z,20.23
2023-05-25T19:04:06.292Z,20.11
2023-05-25T19:06:34.031Z,20.15
2023-05-25T19:09:01.498Z,19.97
2023-05-25T19:11:29.004Z,19.86
2023-05-25T19:13:56.400Z,19.79
2023-05-25T19:16:23.812Z,19.72
2023-05-25T19:18:51.304Z,19.66
2023-05-25T19:21:18.695Z,19.52
2023-05-25T19:23:46.120Z,19.44
2023-05-25T19:26:13.532Z,19.25
2023-05-25T19:28:40.957Z,19.24
2023-05-25T19:31:08.380Z,19.21
2023-05-25T19:33:35.925Z,19.06
2023-05-25T19:36:03.735Z,18.97
2023-05-25T19:38:40.386Z,18.89
2023-05-25T19:41:08.467Z,18.84
2023-05-25T19:43:36.274Z,18.79
2023-05-25T19:46:03.978Z,18.64
2023-05-25T19:48:31.894Z,18.58
2023-05-25T19:51:01.042Z,18.47
2023-05-25T19:53:30.082Z,18.52
2023-05-25T19:55:57.685Z,18.39
2023-05-25T19:58:25.235Z,18.32
2023-05-25T20:00:52.910Z,18.30
2023-05-25T20:03:21.201Z,18.29
2023-05-25T20:05:48.879Z,18.16
2023-05-25T20:08:16.313Z,18.07
2023-05-25T20:10:45.042Z,18.11
2023-05-25T20:13:12.737Z,17.89
2023-05-25T20:15:40.259Z,17.88
2023-05-25T20:18:07.968Z,17.82
2023-05-25T20:20:36.202Z,17.84
2023-05-25T20:23:03.892Z,17.64
2023-05-25T20:25:31.489Z,17.49
2023-05-25T20:27:58.935Z,17.44
2023-05-25T20:30:27.038Z,17.51
2023-05-25T20:32:54.570Z,17.40
2023-05-25T20:35:22.159Z,17.23
2023-05-25T20:37:49.734Z,17.24
2023-05-25T20:40:17.283Z,17.17
2023-05-25T20:42:44.783Z,17.02
2023-05-25T20:45:12.290Z,16.91
2023-05-25T20:47:40.823Z,17.01
2023-05-25T20:50:08.578Z,16.89
2023-05-25T20:52:36.250Z,16.85
2023-05-25T20:55:04.003Z,16.85
2023-05-25T20:57:31.593Z,16.83
2023-05-25T20:59:59.982Z,16.74
2023-05-25T21:02:28.705Z,16.56
2023-05-25T21:04:56.456Z,16.59
2023-05-25T21:07:24.056Z,16.57
2023-05-25T21:09:51.657Z,16.49
2023-05-25T21:12:19.286Z,16.32
2023-05-25T21:14:47.196Z,16.16
2023-05-25T21:17:15.174Z,16.19
2023-05-25T21:19:42.718Z,16.08
2023-05-25T21:22:11.540Z,16.09
2023-05-25T21:24:38.973Z,16.13
2023-05-25T21:27:06.833Z,15.95
2023-05-25T21:29:34.430Z,16.10
2023-05-25T21:32:02.113Z,15.99
2023-05-25T21:34:29.576Z,16.01
2023-05-25T21:36:56.980Z,15.85
2023-05-25T21:39:24.443Z,15.85
2023-05-25T21:41:51.878Z,15.79
2023-05-25T21:44:19.418Z,15.73
2023-05-25T21:46:46.911Z,15.59
2023-05-25T21:49:14.464Z,15.58
2023-05-25T21:51:42.121Z,15.48
2023-05-25T21:54:09.582Z,15.57
2023-05-25T21:56:37.129Z,15.48
2023-05-25T21:59:04.872Z,15.44
2023-05-25T22:01:32.581Z,15.45
2023-05-25T22:04:00.111Z,15.44
2023-05-25T22:06:27.842Z,15.50
2023-05-25T22:08:56.046Z,15.39
2023-05-25T22:11:24.570Z,15.28
2023-05-25T22:13:52.169Z,15.24
2023-05-25T22:16:19.816Z,15.28
2023-05-25T22:18:47.244Z,15.25
2023-05-25T22:21:16.330Z,15.18
2023-05-25T22:23:43.818Z,15.14
2023-05-25T22:26:11.286Z,15.16
2023-05-25T22:28:38.630Z,15.07
2023-05-25T22:31:06.120Z,15.07
2023-05-25T22:33:33.528Z,15.01
2023-05-25T22:36:00.895Z,14.99
2023-05-25T22:38:28.349Z,14.92
2023-05-25T22:40:55.929Z,14.90
2023-05-25T22:43:23.294Z,14.90
2023-05-25T22:45:50.816Z,14.93
2023-05-25T22:48:18.271Z,14.86
2023-05-25T22:50:45.720Z,14.77
2023-05-25T22:53:13.141Z,14.72
2023-05-25T22:55:40.657Z,14.68
2023-05-25T22:58:08.044Z,14.72
2023-05-25T23:00:35.576Z,14.71
2023-05-25T23:03:04.522Z,14.58
2023-05-25T23:05:32.269Z,14.63
2023-05-25T23:07:59.760Z,14.54
2023-05-25T23:10:27.201Z,14.52
2023-05-25T23:12:54.796Z,14.52
2023-05-25T23:15:22.505Z,14.40
2023-05-25T23:17:49.927Z,14.43
2023-05-25T23:20:17.442Z,14.44
2023-05-25T23:22:44.927Z,14.30
2023-05-25T23:25:12.323Z,14.29
2023-05-25T23:27:39.848Z,14.22
2023-05-25T23:30:07.887Z,14.22
2023-05-25T23:32:36.267Z,14.22
2023-05-25T23:35:04.116Z,14.26
2023-05-25T23:37:31.512Z,14.08
2023-05-25T23:39:58.900Z,14.05
2023-05-25T23:42:28.667Z,14.04
2023-05-25T23:44:56.109Z,14.03
2023-05-25T23:47:23.586Z,14.01
2023-05-25T23:49:51.009Z,14.01
2023-05-25T23:52:18.420Z,13.91
2023-05-25T23:54:45.896Z,13.89
2023-05-25T23:57:13.307Z,13.80
2023-05-25T23:59:40.706Z,13.84
